createdAt,value
2022-12-28T00:00:31.119Z,-1.66
2022-12-28T00:03:17.275Z,-1.71
2022-12-28T00:06:04.463Z,-1.33
2022-12-28T00:08:55.042Z,-1.51
2022-12-28T00:11:41.402Z,-1.50
2022-12-28T00:14:27.563Z,-1.56
2022-12-28T00:17:14.296Z,-1.59
2022-12-28T00:20:00.669Z,-1.49
2022-12-28T00:22:47.221Z,-1.44
2022-12-28T00:25:36.575Z,-1.44
2022-12-28T00:28:23.174Z,-1.48
2022-12-28T00:31:09.463Z,-1.28
2022-12-28T00:33:55.893Z,-1.09
2022-12-28T00:37:11.034Z,-1.11
2022-12-28T00:39:49.158Z,-1.30
2022-12-28T00:42:36.341Z,-1.33
2022-12-28T00:45:23.327Z,-1.39
2022-12-28T00:48:09.735Z,-1.37
2022-12-28T00:51:06.127Z,-1.40
2022-12-28T00:53:53.110Z,-1.32
2022-12-28T00:56:42.924Z,-1.15
2022-12-28T00:59:29.453Z,-1.40
2022-12-28T01:02:15.746Z,-1.39
2022-12-28T01:05:02.204Z,-1.00
2022-12-28T01:07:49.312Z,-1.14
2022-12-28T01:10:39.182Z,-1.25
2022-12-28T01:13:25.780Z,-1.08
2022-12-28T01:16:34.280Z,-1.28
2022-12-28T01:19:22.348Z,-1.09
2022-12-28T01:22:10.208Z,-1.05
2022-12-28T01:24:56.650Z,-0.85
2022-12-28T01:27:42.888Z,-0.81
2022-12-28T01:30:30.505Z,-0.63
2022-12-28T01:33:17.938Z,-0.55
2022-12-28T01:36:24.862Z,-0.56
2022-12-28T01:39:11.366Z,-0.56
2022-12-28T01:41:57.558Z,-0.54
2022-12-28T01:44:46.843Z,-0.15
2022-12-28T01:47:35.195Z,-0.23
2022-12-28T01:50:27.981Z,-0.16
2022-12-28T01:53:14.545Z,0.08
2022-12-28T01:56:01.037Z,-0.06
2022-12-28T01:58:48.421Z,-0.08
2022-12-28T02:01:35.314Z,0.02
2022-12-28T02:04:21.681Z,-0.18
2022-12-28T02:07:07.898Z,0.07
2022-12-28T02:10:42.646Z,-0.11
2022-12-28T02:13:01.045Z,-0.03
2022-12-28T02:15:47.897Z,0.33
2022-12-28T02:18:34.315Z,0.55
2022-12-28T02:21:26.155Z,0.46
2022-12-28T02:24:34.845Z,0.71
2022-12-28T02:27:40.026Z,0.80
2022-12-28T02:30:26.592Z,1.02
2022-12-28T02:33:21.395Z,1.08
2022-12-28T02:36:20.848Z,1.24
2022-12-28T02:39:18.359Z,1.27
2022-12-28T02:42:09.667Z,1.37
2022-12-28T02:45:15.684Z,1.51
2022-12-28T02:48:21.114Z,1.63
2022-12-28T02:51:35.227Z,1.77
2022-12-28T02:54:55.738Z,2.19
2022-12-28T02:57:51.652Z,2.33
2022-12-28T03:01:01.437Z,2.60
2022-12-28T03:03:48.018Z,2.98
2022-12-28T03:07:02.773Z,2.79
2022-12-28T03:09:52.384Z,2.94
2022-12-28T03:12:53.574Z,3.01
2022-12-28T03:15:41.561Z,2.99
2022-12-28T03:18:49.495Z,3.12
2022-12-28T03:21:56.126Z,3.24
2022-12-28T03:25:04.126Z,3.24
2022-12-28T03:28:10.391Z,3.38
2022-12-28T03:31:09.313Z,3.45
2022-12-28T03:34:07.053Z,3.52
2022-12-28T03:37:17.111Z,3.63
2022-12-28T03:40:42.161Z,3.59
2022-12-28T03:43:41.713Z,3.71
2022-12-28T03:46:39.866Z,3.62
2022-12-28T03:49:28.387Z,3.70
2022-12-28T03:52:16.485Z,3.81
2022-12-28T03:55:05.535Z,3.75
2022-12-28T03:57:52.548Z,3.70
2022-12-28T04:00:43.132Z,3.78
2022-12-28T04:03:30.080Z,3.78
2022-12-28T04:06:19.623Z,3.71
2022-12-28T04:09:06.377Z,3.60
2022-12-28T04:11:57.306Z,3.71
2022-12-28T04:14:56.891Z,3.53
2022-12-28T04:17:43.439Z,3.63
2022-12-28T04:20:29.979Z,3.62
2022-12-28T04:23:16.707Z,3.69
2022-12-28T04:26:06.333Z,3.80
2022-12-28T04:28:52.951Z,3.98
2022-12-28T04:32:00.865Z,3.99
2022-12-28T04:34:48.912Z,4.05
2022-12-28T04:37:37.889Z,3.94
2022-12-28T04:40:24.341Z,4.16
2022-12-28T04:43:10.728Z,4.19
2022-12-28T04:45:59.046Z,4.31
2022-12-28T04:48:45.626Z,4.27
2022-12-28T04:51:31.880Z,4.31
2022-12-28T04:54:18.527Z,4.11
2022-12-28T04:57:04.747Z,4.25
2022-12-28T04:59:51.158Z,4.01
2022-12-28T05:02:37.710Z,4.23
2022-12-28T05:05:24.348Z,4.30
2022-12-28T05:08:10.425Z,4.34
2022-12-28T05:11:00.479Z,4.01
2022-12-28T05:13:47.577Z,4.29
2022-12-28T05:16:33.731Z,4.33
2022-12-28T05:19:20.454Z,4.41
2022-12-28T05:22:11.856Z,4.35
2022-12-28T05:24:58.124Z,4.49
2022-12-28T05:27:44.553Z,4.62
2022-12-28T05:30:31.034Z,4.67
2022-12-28T05:33:17.738Z,4.68
2022-12-28T05:36:13.262Z,4.56
2022-12-28T05:38:59.759Z,4.37
2022-12-28T05:41:46.022Z,4.54
2022-12-28T05:44:32.761Z,4.54
2022-12-28T05:47:18.948Z,4.66
2022-12-28T05:50:05.806Z,4.69
2022-12-28T05:52:52.375Z,4.62
2022-12-28T05:55:38.788Z,4.66
2022-12-28T05:58:25.271Z,4.63
2022-12-28T06:01:15.802Z,4.69
2022-12-28T06:04:04.756Z,4.59
2022-12-28T06:06:51.357Z,4.82
2022-12-28T06:09:37.729Z,4.72
2022-12-28T06:12:24.272Z,4.90
2022-12-28T06:15:10.989Z,4.81
2022-12-28T06:17:57.370Z,5.05
2022-12-28T06:20:44.055Z,5.02
2022-12-28T06:23:30.437Z,4.99
2022-12-28T06:26:20.397Z,5.17
2022-12-28T06:29:06.906Z,5.18
2022-12-28T06:31:54.679Z,5.20
2022-12-28T06:34:40.929Z,5.19
2022-12-28T06:37:27.451Z,5.24
2022-12-28T06:40:13.957Z,5.08
2022-12-28T06:43:00.059Z,5.21
2022-12-28T06:45:56.897Z,5.33
2022-12-28T06:48:44.190Z,5.39
2022-12-28T06:51:36.002Z,5.37
2022-12-28T06:54:22.276Z,5.27
2022-12-28T06:57:08.598Z,5.43
2022-12-28T06:59:55.080Z,5.31
2022-12-28T07:02:41.640Z,5.26
2022-12-28T07:05:28.122Z,5.24
2022-12-28T07:08:14.600Z,5.32
2022-12-28T07:11:21.439Z,5.32
2022-12-28T07:14:08.130Z,5.27
2022-12-28T07:16:54.776Z,5.17
2022-12-28T07:19:41.116Z,5.06
2022-12-28T07:22:27.630Z,5.22
2022-12-28T07:25:14.233Z,4.87
2022-12-28T07:28:00.449Z,5.15
2022-12-28T07:30:46.663Z,5.04
2022-12-28T07:33:34.288Z,5.05
2022-12-28T07:36:21.381Z,5.04
2022-12-28T07:39:07.795Z,5.16
2022-12-28T07:41:54.039Z,5.18
2022-12-28T07:44:49.066Z,5.09
2022-12-28T07:47:35.806Z,5.21
2022-12-28T07:50:22.036Z,5.22
2022-12-28T07:53:08.480Z,5.26
2022-12-28T07:55:59.062Z,5.43
2022-12-28T07:58:54.418Z,5.39
2022-12-28T08:01:40.923Z,5.44
2022-12-28T08:04:27.469Z,5.64
2022-12-28T08:07:13.815Z,5.68
2022-12-28T08:10:00.200Z,5.83
2022-12-28T08:12:46.429Z,5.87
2022-12-28T08:15:33.108Z,5.95
2022-12-28T08:18:19.335Z,6.10
2022-12-28T08:21:17.687Z,6.01
2022-12-28T08:24:05.556Z,6.00
2022-12-28T08:26:52.104Z,6.01
2022-12-28T08:29:38.574Z,6.19
2022-12-28T08:32:25.084Z,6.28
2022-12-28T08:35:11.576Z,6.13
2022-12-28T08:37:58.263Z,6.39
2022-12-28T08:40:44.514Z,6.43
2022-12-28T08:43:56.371Z,6.48
2022-12-28T08:46:43.135Z,6.48
2022-12-28T08:49:29.576Z,6.35
2022-12-28T08:52:16.283Z,6.37
2022-12-28T08:55:02.344Z,6.37
2022-12-28T08:57:48.784Z,6.39
2022-12-28T09:00:35.396Z,6.44
2022-12-28T09:03:21.758Z,6.52
2022-12-28T09:06:11.121Z,6.45
2022-12-28T09:09:06.644Z,6.50
2022-12-28T09:11:53.330Z,6.49
2022-12-28T09:14:39.507Z,6.66
2022-12-28T09:17:25.973Z,6.80
2022-12-28T09:20:12.617Z,6.83
2022-12-28T09:22:58.811Z,6.80
2022-12-28T09:25:45.253Z,7.04
2022-12-28T09:28:32.155Z,6.95
2022-12-28T09:31:21.150Z,6.91
2022-12-28T09:37:17.770Z,7.23
2022-12-28T09:40:05.485Z,7.26
2022-12-28T09:42:52.489Z,7.29
2022-12-28T09:45:39.385Z,7.57
2022-12-28T09:48:27.710Z,7.55
2022-12-28T09:51:15.086Z,7.69
2022-12-28T09:54:03.719Z,7.75
2022-12-28T09:56:51.369Z,7.60
2022-12-28T09:59:37.612Z,7.95
2022-12-28T10:02:31.328Z,7.86
2022-12-28T10:05:18.531Z,7.96
2022-12-28T10:08:05.414Z,7.99
2022-12-28T10:10:53.098Z,8.03
2022-12-28T10:13:55.995Z,8.10
2022-12-28T10:16:48.333Z,8.08
2022-12-28T10:19:35.215Z,8.03
2022-12-28T10:22:23.372Z,7.97
2022-12-28T10:25:21.957Z,8.05
2022-12-28T10:28:11.283Z,7.91
2022-12-28T10:31:04.020Z,8.10
2022-12-28T10:33:52.166Z,7.97
2022-12-28T10:36:39.849Z,8.26
2022-12-28T10:39:31.313Z,8.35
2022-12-28T10:42:24.706Z,8.59
2022-12-28T10:45:20.165Z,8.63
2022-12-28T10:48:18.552Z,8.70
2022-12-28T10:51:20.416Z,8.81
2022-12-28T10:54:28.189Z,8.92
2022-12-28T10:57:28.442Z,9.01
2022-12-28T11:00:22.168Z,9.18
2022-12-28T11:03:19.662Z,9.06
2022-12-28T11:06:24.224Z,9.18
2022-12-28T11:09:12.820Z,8.91
2022-12-28T11:12:22.251Z,9.43
2022-12-28T11:15:15.645Z,9.51
2022-12-28T11:18:14.647Z,9.47
2022-12-28T11:21:01.586Z,9.65
2022-12-28T11:23:53.177Z,9.76
2022-12-28T11:26:44.397Z,9.86
2022-12-28T11:29:30.632Z,9.84
2022-12-28T11:32:26.173Z,10.00
2022-12-28T11:35:22.564Z,9.99
2022-12-28T11:38:31.708Z,10.07
2022-12-28T11:41:30.161Z,10.34
2022-12-28T11:44:40.741Z,10.61
2022-12-28T11:47:35.586Z,10.96
2022-12-28T11:50:34.524Z,11.17
2022-12-28T11:53:42.448Z,11.33
2022-12-28T11:56:43.825Z,11.49
2022-12-28T11:59:32.581Z,11.51
2022-12-28T12:02:28.108Z,11.50
2022-12-28T12:05:39.561Z,11.46
2022-12-28T12:08:32.250Z,11.59
2022-12-28T12:11:18.831Z,11.60
2022-12-28T12:14:07.809Z,11.52
2022-12-28T12:17:03.149Z,11.57
2022-12-28T12:20:02.338Z,11.70
2022-12-28T12:22:52.879Z,11.63
2022-12-28T12:25:39.278Z,11.76
2022-12-28T12:28:31.600Z,11.70
2022-12-28T12:31:30.675Z,11.54
2022-12-28T12:34:29.135Z,11.55
2022-12-28T12:38:03.813Z,11.47
2022-12-28T12:41:26.921Z,11.36
2022-12-28T12:44:18.759Z,11.28
2022-12-28T12:47:32.809Z,11.18
2022-12-28T12:50:21.951Z,11.22
2022-12-28T12:53:48.697Z,11.11
2022-12-28T12:57:00.585Z,10.83
2022-12-28T13:00:05.791Z,10.78
2022-12-28T13:03:16.704Z,10.60
2022-12-28T13:06:05.864Z,10.43
2022-12-28T13:09:04.798Z,10.34
2022-12-28T13:11:52.559Z,10.42
2022-12-28T13:14:39.297Z,10.34
2022-12-28T13:17:26.433Z,10.26
2022-12-28T13:20:21.282Z,10.14
2022-12-28T13:23:17.179Z,10.23
2022-12-28T13:26:03.738Z,10.10
2022-12-28T13:29:02.310Z,10.06
2022-12-28T13:31:51.528Z,9.93
2022-12-28T13:34:38.810Z,9.56
2022-12-28T13:37:25.539Z,9.64
2022-12-28T13:40:15.926Z,9.55
2022-12-28T13:43:08.083Z,9.51
2022-12-28T13:46:02.534Z,9.29
2022-12-28T13:48:57.915Z,9.29
2022-12-28T13:51:49.759Z,9.23
2022-12-28T13:54:43.625Z,9.21
2022-12-28T13:57:52.651Z,9.09
2022-12-28T14:00:43.018Z,9.09
2022-12-28T14:03:34.547Z,8.82
2022-12-28T14:06:24.123Z,8.94
2022-12-28T14:09:13.264Z,8.76
2022-12-28T14:12:00.047Z,8.97
2022-12-28T14:14:47.344Z,8.94
2022-12-28T14:17:37.816Z,8.95
2022-12-28T14:20:24.470Z,8.83
2022-12-28T14:23:28.550Z,8.87
2022-12-28T14:26:22.546Z,8.83
2022-12-28T14:29:13.841Z,9.00
2022-12-28T14:32:08.268Z,9.08
2022-12-28T14:35:00.277Z,8.91
2022-12-28T14:37:52.437Z,8.95
2022-12-28T14:40:39.839Z,8.84
2022-12-28T14:43:29.867Z,8.73
2022-12-28T14:46:36.644Z,8.79
2022-12-28T14:49:29.250Z,8.78
2022-12-28T14:52:18.507Z,8.73
2022-12-28T14:55:21.992Z,8.63
2022-12-28T14:58:21.557Z,8.67
2022-12-28T15:01:12.270Z,8.41
2022-12-28T15:04:01.971Z,8.49
2022-12-28T15:06:48.607Z,8.25
2022-12-28T15:09:35.131Z,8.32
2022-12-28T15:12:22.897Z,8.01
2022-12-28T15:15:10.282Z,8.16
2022-12-28T15:17:56.959Z,8.07
2022-12-28T15:20:43.145Z,8.01
2022-12-28T15:23:29.612Z,7.80
2022-12-28T15:26:16.427Z,7.80
2022-12-28T15:29:06.070Z,7.77
2022-12-28T15:31:52.433Z,7.65
2022-12-28T15:34:39.176Z,7.60
2022-12-28T15:37:25.795Z,7.62
2022-12-28T15:40:12.459Z,7.56
2022-12-28T15:42:58.844Z,7.56
2022-12-28T15:45:55.987Z,7.48
2022-12-28T15:48:47.451Z,7.48
2022-12-28T15:51:34.396Z,7.54
2022-12-28T15:54:21.112Z,7.55
2022-12-28T15:57:07.613Z,7.43
2022-12-28T15:59:55.907Z,7.41
2022-12-28T16:02:42.271Z,7.28
2022-12-28T16:05:29.072Z,7.14
2022-12-28T16:08:15.726Z,7.18
2022-12-28T16:11:14.362Z,7.14
2022-12-28T16:14:03.376Z,7.25
2022-12-28T16:16:50.125Z,7.27
2022-12-28T16:19:36.720Z,7.28
2022-12-28T16:22:23.187Z,7.16
2022-12-28T16:25:09.896Z,7.33
2022-12-28T16:27:56.520Z,7.24
2022-12-28T16:30:49.356Z,6.97
2022-12-28T16:33:37.605Z,7.26
2022-12-28T16:36:24.258Z,7.20
2022-12-28T16:39:13.653Z,7.02
2022-12-28T16:41:59.984Z,7.18
2022-12-28T16:44:46.142Z,7.17
2022-12-28T16:47:32.785Z,7.35
2022-12-28T16:50:19.317Z,7.33
2022-12-28T16:53:05.741Z,7.25
2022-12-28T16:55:52.091Z,6.96
2022-12-28T16:58:38.512Z,7.25
2022-12-28T17:01:25.261Z,7.34
2022-12-28T17:04:12.281Z,7.18
2022-12-28T17:06:59.524Z,7.08
2022-12-28T17:09:50.164Z,6.99
2022-12-28T17:12:36.708Z,6.84
2022-12-28T17:15:23.736Z,6.90
2022-12-28T17:18:10.802Z,6.74
2022-12-28T17:21:01.831Z,6.64
2022-12-28T17:23:53.259Z,6.51
2022-12-28T17:26:39.641Z,6.51
2022-12-28T17:29:26.077Z,6.22
2022-12-28T17:32:12.469Z,6.41
2022-12-28T17:34:59.096Z,6.22
2022-12-28T17:37:45.602Z,6.15
2022-12-28T17:40:32.056Z,6.18
2022-12-28T17:43:18.569Z,6.09
2022-12-28T17:46:05.476Z,6.09
2022-12-28T17:48:56.928Z,6.19
2022-12-28T17:51:44.411Z,6.32
2022-12-28T17:54:30.705Z,6.54
2022-12-28T17:57:17.637Z,6.59
2022-12-28T18:00:04.420Z,6.66
2022-12-28T18:02:59.190Z,6.72
2022-12-28T18:05:51.133Z,6.77
2022-12-28T18:08:37.314Z,7.05
2022-12-28T18:11:23.862Z,6.97
2022-12-28T18:14:13.332Z,7.01
2022-12-28T18:16:59.566Z,7.14
2022-12-28T18:19:46.261Z,7.10
2022-12-28T18:22:32.581Z,7.26
2022-12-28T18:25:19.075Z,7.04
2022-12-28T18:28:05.737Z,7.02
2022-12-28T18:30:55.356Z,7.29
2022-12-28T18:33:44.847Z,7.27
2022-12-28T18:36:31.291Z,7.09
2022-12-28T18:39:17.565Z,7.26
2022-12-28T18:42:04.140Z,7.36
2022-12-28T18:44:50.702Z,7.39
2022-12-28T18:47:37.052Z,7.35
2022-12-28T18:50:23.760Z,7.19
2022-12-28T18:53:09.943Z,7.41
2022-12-28T18:56:16.968Z,7.52
2022-12-28T18:59:03.577Z,7.49
2022-12-28T19:02:07.444Z,7.50
2022-12-28T19:04:54.725Z,7.52
2022-12-28T19:07:45.740Z,7.32
2022-12-28T19:10:35.457Z,7.45
2022-12-28T19:13:21.798Z,7.48
2022-12-28T19:16:17.348Z,7.50
2022-12-28T19:19:03.648Z,7.38
2022-12-28T19:21:56.645Z,7.57
2022-12-28T19:24:44.964Z,7.46
2022-12-28T19:27:31.133Z,7.40
2022-12-28T19:30:17.499Z,7.41
2022-12-28T19:33:03.681Z,7.35
2022-12-28T19:35:49.996Z,7.25
2022-12-28T19:38:36.449Z,7.41
2022-12-28T19:41:23.369Z,7.25
2022-12-28T19:44:09.670Z,7.28
2022-12-28T19:46:56.392Z,7.28
2022-12-28T19:49:45.452Z,7.19
2022-12-28T19:52:33.098Z,7.18
2022-12-28T19:55:19.280Z,6.94
2022-12-28T19:58:05.841Z,7.14
2022-12-28T20:00:52.889Z,6.95
2022-12-28T20:03:39.965Z,7.02
2022-12-28T20:06:37.672Z,7.04
2022-12-28T20:09:23.913Z,7.01
2022-12-28T20:12:10.399Z,7.01
2022-12-28T20:14:57.041Z,6.92
2022-12-28T20:17:47.327Z,6.92
2022-12-28T20:21:00.843Z,6.95
2022-12-28T20:23:40.637Z,6.75
2022-12-28T20:26:28.934Z,6.90
2022-12-28T20:29:16.347Z,6.87
2022-12-28T20:32:03.146Z,6.83
2022-12-28T20:34:49.862Z,6.86
2022-12-28T20:37:35.866Z,6.76
2022-12-28T20:40:22.083Z,6.69
2022-12-28T20:43:24.384Z,6.64
2022-12-28T20:46:11.779Z,6.83
2022-12-28T20:48:59.098Z,6.61
2022-12-28T20:51:47.817Z,6.63
2022-12-28T20:54:34.420Z,6.73
2022-12-28T20:57:20.586Z,6.90
2022-12-28T21:00:08.386Z,6.79
2022-12-28T21:02:54.960Z,6.83
2022-12-28T21:05:41.415Z,6.87
2022-12-28T21:08:30.844Z,6.80
2022-12-28T21:11:17.954Z,6.89
2022-12-28T21:14:04.418Z,6.98
2022-12-28T21:16:51.163Z,7.02
2022-12-28T21:19:37.815Z,6.88
2022-12-28T21:22:24.428Z,6.99
2022-12-28T21:25:11.248Z,6.93
2022-12-28T21:27:59.262Z,7.11
2022-12-28T21:30:53.660Z,6.97
2022-12-28T21:33:41.173Z,7.13
2022-12-28T21:36:27.748Z,7.21
2022-12-28T21:39:14.206Z,7.22
2022-12-28T21:42:00.656Z,7.37
2022-12-28T21:44:47.009Z,7.32
2022-12-28T21:47:34.824Z,7.26
2022-12-28T21:50:26.363Z,7.42
2022-12-28T21:53:12.740Z,7.43
2022-12-28T21:55:59.477Z,7.49
2022-12-28T21:58:46.330Z,7.41
2022-12-28T22:01:52.066Z,7.34
2022-12-28T22:05:02.561Z,7.13
2022-12-28T22:08:13.440Z,7.15
2022-12-28T22:11:18.595Z,7.10
2022-12-28T22:14:06.427Z,6.92
2022-12-28T22:16:52.963Z,6.93
2022-12-28T22:19:39.774Z,6.86
2022-12-28T22:22:26.312Z,6.97
2022-12-28T22:25:13.879Z,6.86
2022-12-28T22:28:01.590Z,7.07
2022-12-28T22:30:47.961Z,7.32
2022-12-28T22:33:35.108Z,7.52
2022-12-28T22:36:21.391Z,7.46
2022-12-28T22:39:07.977Z,7.60
2022-12-28T22:41:54.393Z,7.57
2022-12-28T22:44:41.507Z,7.74
2022-12-28T22:47:28.357Z,7.63
2022-12-28T22:50:17.843Z,7.63
2022-12-28T22:53:04.391Z,7.82
2022-12-28T22:56:01.448Z,7.68
2022-12-28T22:58:48.730Z,7.64
2022-12-28T23:01:35.423Z,7.89
2022-12-28T23:04:22.064Z,7.98
2022-12-28T23:07:08.942Z,7.94
2022-12-28T23:09:57.384Z,7.87
2022-12-28T23:12:44.190Z,7.86
2022-12-28T23:15:30.797Z,7.93
2022-12-28T23:18:43.506Z,7.89
2022-12-28T23:21:48.772Z,8.06
2022-12-28T23:24:54.083Z,8.03
2022-12-28T23:27:42.895Z,8.16
2022-12-28T23:30:29.565Z,8.26
2022-12-28T23:33:17.496Z,8.27
2022-12-28T23:36:04.532Z,8.28
2022-12-28T23:38:51.126Z,8.34
2022-12-28T23:41:49.636Z,8.35
2022-12-28T23:44:35.802Z,8.36
2022-12-28T23:47:22.370Z,8.45
2022-12-28T23:50:09.382Z,8.45
2022-12-28T23:52:55.670Z,8.41
2022-12-28T23:55:42.085Z,8.43
2022-12-28T23:58:28.743Z,8.40
